sensor_id;sensor_type;location;lat;lon;timestamp;pressure;altitude;pressure_sealevel;temperature;humidity
45357;BME280;31092;51.924;21.448;2023-04-02T00:01:49;99142.31;;;5.59;100.00
45357;BME280;31092;51.924;21.448;2023-04-02T00:04:17;99224.03;;;6.12;100.00
45357;BME280;31092;51.924;21.448;2023-04-02T00:07:33;99196.56;;;5.94;100.00
45357;BME280;31092;51.924;21.448;2023-04-02T00:09:37;99232.19;;;6.11;100.00
45357;BME280;31092;51.924;21.448;2023-04-02T00:12:14;99142.63;;;5.56;100.00
45357;BME280;31092;51.924;21.448;2023-04-02T00:14:46;99187.97;;;5.82;100.00
45357;BME280;31092;51.924;21.448;2023-04-02T00:17:12;99158.53;;;5.66;100.00
45357;BME280;31092;51.924;21.448;2023-04-02T00:19:59;99204.88;;;5.91;100.00
45357;BME280;31092;51.924;21.448;2023-04-02T00:22:29;99235.19;;;6.08;100.00
45357;BME280;31092;51.924;21.448;2023-04-02T00:24:56;99227.84;;;6.02;100.00
45357;BME280;31092;51.924;21.448;2023-04-02T00:27:22;99134.72;;;5.46;100.00
45357;BME280;31092;51.924;21.448;2023-04-02T00:29:49;99237.34;;;6.04;100.00
45357;BME280;31092;51.924;21.448;2023-04-02T00:32:25;99180.72;;;5.66;100.00
45357;BME280;31092;51.924;21.448;2023-04-02T00:34:52;99239.06;;;6.05;100.00
45357;BME280;31092;51.924;21.448;2023-04-02T00:37:20;99154.94;;;5.49;100.00
45357;BME280;31092;51.924;21.448;2023-04-02T00:40:00;99268.78;;;6.02;100.00
45357;BME280;31092;51.924;21.448;2023-04-02T00:42:30;99148.00;;;5.30;100.00
45357;BME280;31092;51.924;21.448;2023-04-02T00:44:56;99269.72;;;5.93;100.00
45357;BME280;31092;51.924;21.448;2023-04-02T00:47:26;99160.69;;;5.28;100.00
45357;BME280;31092;51.924;21.448;2023-04-02T00:49:58;99222.25;;;5.61;100.00
45357;BME280;31092;51.924;21.448;2023-04-02T00:52:28;99270.97;;;5.81;100.00
45357;BME280;31092;51.924;21.448;2023-04-02T00:55:02;99277.81;;;5.83;100.00
45357;BME280;31092;51.924;21.448;2023-04-02T00:57:29;99261.13;;;5.81;100.00
45357;BME280;31092;51.924;21.448;2023-04-02T01:02:30;99246.50;;;5.67;100.00
45357;BME280;31092;51.924;21.448;2023-04-02T01:05:02;99270.13;;;5.80;100.00
45357;BME280;31092;51.924;21.448;2023-04-02T01:10:38;99283.50;;;5.80;100.00
45357;BME280;31092;51.924;21.448;2023-04-02T01:13:22;99287.97;;;5.80;100.00
45357;BME280;31092;51.924;21.448;2023-04-02T01:15:59;99281.81;;;5.79;100.00
45357;BME280;31092;51.924;21.448;2023-04-02T01:22:04;99273.22;;;5.67;100.00
45357;BME280;31092;51.924;21.448;2023-04-02T01:24:33;99267.69;;;5.61;100.00
45357;BME280;31092;51.924;21.448;2023-04-02T01:27:05;99268.38;;;5.63;100.00
45357;BME280;31092;51.924;21.448;2023-04-02T01:29:41;99215.06;;;5.27;100.00
45357;BME280;31092;51.924;21.448;2023-04-02T01:32:12;99276.38;;;5.63;100.00
45357;BME280;31092;51.924;21.448;2023-04-02T01:34:38;99216.38;;;5.23;100.00
45357;BME280;31092;51.924;21.448;2023-04-02T01:37:42;99295.81;;;5.73;100.00
45357;BME280;31092;51.924;21.448;2023-04-02T01:40:30;99304.66;;;5.73;100.00
45357;BME280;31092;51.924;21.448;2023-04-02T01:43:17;99155.41;;;4.84;100.00
45357;BME280;31092;51.924;21.448;2023-04-02T01:45:44;99302.13;;;5.72;100.00
45357;BME280;31092;51.924;21.448;2023-04-02T01:48:18;99289.03;;;5.61;100.00
45357;BME280;31092;51.924;21.448;2023-04-02T01:50:47;99205.28;;;5.10;100.00
45357;BME280;31092;51.924;21.448;2023-04-02T01:53:15;99289.88;;;5.61;100.00
45357;BME280;31092;51.924;21.448;2023-04-02T01:56:01;99226.84;;;5.16;100.00
45357;BME280;31092;51.924;21.448;2023-04-02T01:58:29;99264.69;;;5.38;100.00
45357;BME280;31092;51.924;21.448;2023-04-02T02:01:01;99241.25;;;5.23;100.00
45357;BME280;31092;51.924;21.448;2023-04-02T02:03:28;99253.75;;;5.23;100.00
45357;BME280;31092;51.924;21.448;2023-04-02T02:05:55;99211.16;;;4.95;100.00
45357;BME280;31092;51.924;21.448;2023-04-02T02:08:48;99321.63;;;5.64;100.00
45357;BME280;31092;51.924;21.448;2023-04-02T02:11:24;99265.09;;;5.25;100.00
45357;BME280;31092;51.924;21.448;2023-04-02T02:14:00;99315.94;;;5.59;100.00
45357;BME280;31092;51.924;21.448;2023-04-02T02:16:28;99294.59;;;5.41;100.00
45357;BME280;31092;51.924;21.448;2023-04-02T02:18:58;99253.53;;;5.16;100.00
45357;BME280;31092;51.924;21.448;2023-04-02T02:21:42;99324.91;;;5.58;100.00
45357;BME280;31092;51.924;21.448;2023-04-02T02:24:32;99333.31;;;5.63;100.00
45357;BME280;31092;51.924;21.448;2023-04-02T02:30:01;99341.47;;;5.62;100.00
45357;BME280;31092;51.924;21.448;2023-04-02T02:32:30;99323.41;;;5.56;100.00
45357;BME280;31092;51.924;21.448;2023-04-02T02:35:07;99240.88;;;5.00;100.00
45357;BME280;31092;51.924;21.448;2023-04-02T02:37:39;99328.75;;;5.56;100.00
45357;BME280;31092;51.924;21.448;2023-04-02T02:40:19;99238.38;;;4.99;100.00
45357;BME280;31092;51.924;21.448;2023-04-02T02:42:49;99267.84;;;5.15;100.00
45357;BME280;31092;51.924;21.448;2023-04-02T02:45:21;99344.91;;;5.54;100.00
45357;BME280;31092;51.924;21.448;2023-04-02T02:47:49;99277.47;;;5.08;100.00
45357;BME280;31092;51.924;21.448;2023-04-02T02:50:26;99325.13;;;5.39;100.00
45357;BME280;31092;51.924;21.448;2023-04-02T02:52:57;99219.97;;;4.70;100.00
45357;BME280;31092;51.924;21.448;2023-04-02T02:55:27;99249.31;;;4.88;100.00
45357;BME280;31092;51.924;21.448;2023-04-02T02:58:09;99335.09;;;5.37;100.00
45357;BME280;31092;51.924;21.448;2023-04-02T03:00:36;99353.19;;;5.43;100.00
45357;BME280;31092;51.924;21.448;2023-04-02T03:03:06;99262.41;;;4.81;100.00
45357;BME280;31092;51.924;21.448;2023-04-02T03:05:34;99362.03;;;5.43;100.00
45357;BME280;31092;51.924;21.448;2023-04-02T03:08:02;99285.34;;;4.92;100.00
45357;BME280;31092;51.924;21.448;2023-04-02T03:13:28;99378.81;;;5.36;100.00
45357;BME280;31092;51.924;21.448;2023-04-02T03:21:43;99311.09;;;4.83;100.00
45357;BME280;31092;51.924;21.448;2023-04-02T03:26:57;99262.63;;;4.52;100.00
45357;BME280;31092;51.924;21.448;2023-04-02T03:29:29;99304.31;;;4.71;100.00
45357;BME280;31092;51.924;21.448;2023-04-02T03:32:21;99333.28;;;4.84;100.00
45357;BME280;31092;51.924;21.448;2023-04-02T03:34:56;99382.72;;;5.06;100.00
45357;BME280;31092;51.924;21.448;2023-04-02T03:37:30;99359.22;;;4.91;100.00
45357;BME280;31092;51.924;21.448;2023-04-02T03:40:09;99397.28;;;5.11;100.00
45357;BME280;31092;51.924;21.448;2023-04-02T03:42:48;99363.09;;;4.79;100.00
45357;BME280;31092;51.924;21.448;2023-04-02T03:45:19;99383.78;;;4.95;100.00
45357;BME280;31092;51.924;21.448;2023-04-02T03:48:03;99429.84;;;5.15;100.00
45357;BME280;31092;51.924;21.448;2023-04-02T03:50:44;99417.63;;;5.12;100.00
45357;BME280;31092;51.924;21.448;2023-04-02T03:53:12;99410.31;;;4.96;100.00
45357;BME280;31092;51.924;21.448;2023-04-02T03:55:39;99352.09;;;4.64;100.00
45357;BME280;31092;51.924;21.448;2023-04-02T04:01:04;99425.03;;;5.00;100.00
45357;BME280;31092;51.924;21.448;2023-04-02T04:06:20;99445.91;;;5.05;100.00
45357;BME280;31092;51.924;21.448;2023-04-02T04:08:49;99452.41;;;5.02;100.00
45357;BME280;31092;51.924;21.448;2023-04-02T04:11:18;99452.00;;;4.97;100.00
45357;BME280;31092;51.924;21.448;2023-04-02T04:14:11;99364.28;;;4.39;100.00
45357;BME280;31092;51.924;21.448;2023-04-02T04:16:46;99478.97;;;4.94;100.00
45357;BME280;31092;51.924;21.448;2023-04-02T04:19:38;99404.50;;;4.55;100.00
45357;BME280;31092;51.924;21.448;2023-04-02T04:22:26;99377.09;;;4.36;100.00
45357;BME280;31092;51.924;21.448;2023-04-02T04:25:01;99480.28;;;4.90;100.00
45357;BME280;31092;51.924;21.448;2023-04-02T04:27:34;99391.41;;;4.35;100.00
45357;BME280;31092;51.924;21.448;2023-04-02T04:30:22;99393.38;;;4.32;100.00
45357;BME280;31092;51.924;21.448;2023-04-02T04:32:54;99478.50;;;4.81;100.00
45357;BME280;31092;51.924;21.448;2023-04-02T04:35:32;99488.28;;;4.90;100.00
45357;BME280;31092;51.924;21.448;2023-04-02T04:38:23;99497.28;;;4.89;100.00
45357;BME280;31092;51.924;21.448;2023-04-02T04:41:13;99502.63;;;4.89;100.00
45357;BME280;31092;51.924;21.448;2023-04-02T04:46:37;99489.19;;;4.81;100.00
45357;BME280;31092;51.924;21.448;2023-04-02T04:49:10;99438.09;;;4.48;100.00
45357;BME280;31092;51.924;21.448;2023-04-02T04:51:43;99452.63;;;4.54;100.00
45357;BME280;31092;51.924;21.448;2023-04-02T04:54:14;99481.03;;;4.73;100.00
45357;BME280;31092;51.924;21.448;2023-04-02T04:56:43;99507.94;;;4.89;100.00
45357;BME280;31092;51.924;21.448;2023-04-02T04:59:18;99491.59;;;4.74;100.00
45357;BME280;31092;51.924;21.448;2023-04-02T05:04:38;99452.66;;;4.44;100.00
45357;BME280;31092;51.924;21.448;2023-04-02T05:12:34;99481.13;;;4.63;100.00
45357;BME280;31092;51.924;21.448;2023-04-02T05:17:38;99501.00;;;4.69;100.00
45357;BME280;31092;51.924;21.448;2023-04-02T05:20:23;99554.84;;;4.92;100.00
45357;BME280;31092;51.924;21.448;2023-04-02T05:25:23;99552.19;;;4.92;100.00
45357;BME280;31092;51.924;21.448;2023-04-02T05:33:12;99505.13;;;4.53;100.00
45357;BME280;31092;51.924;21.448;2023-04-02T05:35:45;99479.94;;;4.38;100.00
45357;BME280;31092;51.924;21.448;2023-04-02T05:38:24;99504.88;;;4.47;100.00
45357;BME280;31092;51.924;21.448;2023-04-02T05:41:10;99484.72;;;4.35;100.00
45357;BME280;31092;51.924;21.448;2023-04-02T05:43:45;99497.03;;;4.36;100.00
45357;BME280;31092;51.924;21.448;2023-04-02T05:46:17;99512.31;;;4.43;100.00
45357;BME280;31092;51.924;21.448;2023-04-02T05:48:54;99549.47;;;4.64;100.00
45357;BME280;31092;51.924;21.448;2023-04-02T05:51:46;99495.78;;;4.30;100.00
45357;BME280;31092;51.924;21.448;2023-04-02T05:54:20;99490.22;;;4.23;100.00
45357;BME280;31092;51.924;21.448;2023-04-02T05:56:51;99558.19;;;4.66;100.00
45357;BME280;31092;51.924;21.448;2023-04-02T05:59:24;99534.91;;;4.49;100.00
45357;BME280;31092;51.924;21.448;2023-04-02T06:01:57;99556.06;;;4.60;100.00
45357;BME280;31092;51.924;21.448;2023-04-02T06:04:39;99513.19;;;4.34;100.00
45357;BME280;31092;51.924;21.448;2023-04-02T06:07:39;99601.34;;;4.79;100.00
45357;BME280;31092;51.924;21.448;2023-04-02T06:12:44;99556.25;;;4.49;100.00
45357;BME280;31092;51.924;21.448;2023-04-02T06:15:16;99526.38;;;4.26;100.00
45357;BME280;31092;51.924;21.448;2023-04-02T06:17:52;99606.03;;;4.77;100.00
45357;BME280;31092;51.924;21.448;2023-04-02T06:20:22;99601.25;;;4.71;100.00
45357;BME280;31092;51.924;21.448;2023-04-02T06:22:50;99524.72;;;4.25;100.00
45357;BME280;31092;51.924;21.448;2023-04-02T06:25:23;99619.91;;;4.81;100.00
45357;BME280;31092;51.924;21.448;2023-04-02T06:27:51;99617.38;;;4.79;100.00
45357;BME280;31092;51.924;21.448;2023-04-02T06:30:29;99562.31;;;4.31;100.00
45357;BME280;31092;51.924;21.448;2023-04-02T06:32:56;99537.06;;;4.16;100.00
45357;BME280;31092;51.924;21.448;2023-04-02T06:35:21;99637.59;;;4.72;100.00
45357;BME280;31092;51.924;21.448;2023-04-02T06:37:49;99551.09;;;4.18;100.00
45357;BME280;31092;51.924;21.448;2023-04-02T06:40:43;99650.25;;;4.70;100.00
45357;BME280;31092;51.924;21.448;2023-04-02T06:45:45;99572.97;;;4.12;100.00
45357;BME280;31092;51.924;21.448;2023-04-02T06:48:16;99549.28;;;3.99;100.00
45357;BME280;31092;51.924;21.448;2023-04-02T06:50:47;99532.72;;;3.86;100.00
45357;BME280;31092;51.924;21.448;2023-04-02T06:53:30;99637.09;;;4.40;100.00
45357;BME280;31092;51.924;21.448;2023-04-02T06:57:03;99657.44;;;4.50;100.00
45357;BME280;31092;51.924;21.448;2023-04-02T06:58:58;99544.22;;;3.77;100.00
45357;BME280;31092;51.924;21.448;2023-04-02T07:01:26;99567.78;;;3.91;100.00
45357;BME280;31092;51.924;21.448;2023-04-02T07:03:53;99578.31;;;3.93;100.00
45357;BME280;31092;51.924;21.448;2023-04-02T07:06:20;99579.88;;;3.95;100.00
45357;BME280;31092;51.924;21.448;2023-04-02T07:08:46;99571.16;;;3.93;100.00
45357;BME280;31092;51.924;21.448;2023-04-02T07:11:17;99673.56;;;4.49;100.00
45357;BME280;31092;51.924;21.448;2023-04-02T07:13:43;99671.47;;;4.43;100.00
45357;BME280;31092;51.924;21.448;2023-04-02T07:16:20;99652.50;;;4.26;100.00
45357;BME280;31092;51.924;21.448;2023-04-02T07:18:46;99614.34;;;3.97;100.00
45357;BME280;31092;51.924;21.448;2023-04-02T07:21:12;99667.09;;;4.22;100.00
45357;BME280;31092;51.924;21.448;2023-04-02T07:23:37;99610.25;;;3.83;100.00
45357;BME280;31092;51.924;21.448;2023-04-02T07:26:05;99713.13;;;4.44;100.00
45357;BME280;31092;51.924;21.448;2023-04-02T07:28:31;99711.31;;;4.44;100.00
45357;BME280;31092;51.924;21.448;2023-04-02T07:30:56;99707.13;;;4.42;100.00
45357;BME280;31092;51.924;21.448;2023-04-02T07:33:24;99697.41;;;4.41;100.00
45357;BME280;31092;51.924;21.448;2023-04-02T07:35:51;99682.53;;;4.28;100.00
45357;BME280;31092;51.924;21.448;2023-04-02T07:38:17;99632.03;;;3.88;100.00
45357;BME280;31092;51.924;21.448;2023-04-02T07:40:43;99566.47;;;3.47;100.00
45357;BME280;31092;51.924;21.448;2023-04-02T07:43:10;99729.00;;;4.45;100.00
45357;BME280;31092;51.924;21.448;2023-04-02T07:45:35;99680.72;;;4.10;100.00
45357;BME280;31092;51.924;21.448;2023-04-02T07:48:05;99729.16;;;4.34;100.00
45357;BME280;31092;51.924;21.448;2023-04-02T07:50:31;99732.09;;;4.31;100.00
45357;BME280;31092;51.924;21.448;2023-04-02T07:52:57;99745.41;;;4.41;100.00
45357;BME280;31092;51.924;21.448;2023-04-02T07:55:22;99748.19;;;4.29;100.00
45357;BME280;31092;51.924;21.448;2023-04-02T07:57:53;99640.50;;;3.63;100.00
45357;BME280;31092;51.924;21.448;2023-04-02T08:00:19;99739.34;;;4.19;100.00
45357;BME280;31092;51.924;21.448;2023-04-02T08:02:46;99658.03;;;3.65;100.00
45357;BME280;31092;51.924;21.448;2023-04-02T08:05:11;99738.63;;;4.07;100.00
45357;BME280;31092;51.924;21.448;2023-04-02T08:07:37;99650.00;;;3.55;100.00
45357;BME280;31092;51.924;21.448;2023-04-02T08:10:04;99733.13;;;3.99;100.00
45357;BME280;31092;51.924;21.448;2023-04-02T08:12:30;99751.66;;;4.01;100.00
45357;BME280;31092;51.924;21.448;2023-04-02T08:14:56;99730.28;;;3.91;100.00
45357;BME280;31092;51.924;21.448;2023-04-02T08:17:21;99640.44;;;3.43;100.00
45357;BME280;31092;51.924;21.448;2023-04-02T08:19:47;99660.94;;;3.62;100.00
45357;BME280;31092;51.924;21.448;2023-04-02T08:22:13;99773.91;;;4.40;100.00
45357;BME280;31092;51.924;21.448;2023-04-02T08:24:38;99691.47;;;3.98;100.00
45357;BME280;31092;51.924;21.448;2023-04-02T08:27:04;99755.94;;;4.42;100.00
45357;BME280;31092;51.924;21.448;2023-04-02T08:29:30;99762.84;;;4.54;100.00
45357;BME280;31092;51.924;21.448;2023-04-02T08:32:00;99701.91;;;4.21;100.00
45357;BME280;31092;51.924;21.448;2023-04-02T08:34:27;99771.56;;;4.66;100.00
45357;BME280;31092;51.924;21.448;2023-04-02T08:36:56;99753.72;;;4.57;100.00
45357;BME280;31092;51.924;21.448;2023-04-02T08:39:23;99799.09;;;4.86;100.00
45357;BME280;31092;51.924;21.448;2023-04-02T08:41:59;99813.84;;;4.80;100.00
45357;BME280;31092;51.924;21.448;2023-04-02T08:47:07;99707.56;;;3.87;100.00
45357;BME280;31092;51.924;21.448;2023-04-02T08:49:54;99794.28;;;4.41;100.00
45357;BME280;31092;51.924;21.448;2023-04-02T08:52:28;99800.56;;;4.40;100.00
45357;BME280;31092;51.924;21.448;2023-04-02T08:54:55;99798.19;;;4.47;100.00
45357;BME280;31092;51.924;21.448;2023-04-02T08:57:45;99799.59;;;4.51;100.00
45357;BME280;31092;51.924;21.448;2023-04-02T09:00:35;99741.16;;;4.19;100.00
45357;BME280;31092;51.924;21.448;2023-04-02T09:03:26;99813.09;;;4.69;100.00
45357;BME280;31092;51.924;21.448;2023-04-02T09:05:52;99814.94;;;4.68;100.00
45357;BME280;31092;51.924;21.448;2023-04-02T09:08:20;99709.72;;;4.03;100.00
45357;BME280;31092;51.924;21.448;2023-04-02T09:10:54;99722.47;;;3.99;100.00
45357;BME280;31092;51.924;21.448;2023-04-02T09:13:25;99837.66;;;4.53;100.00
45357;BME280;31092;51.924;21.448;2023-04-02T09:18:36;99751.78;;;3.99;100.00
45357;BME280;31092;51.924;21.448;2023-04-02T09:21:24;99780.16;;;4.10;100.00
45357;BME280;31092;51.924;21.448;2023-04-02T09:23:54;99777.75;;;4.07;100.00
45357;BME280;31092;51.924;21.448;2023-04-02T09:26:26;99834.28;;;4.41;100.00
45357;BME280;31092;51.924;21.448;2023-04-02T09:29:00;99793.91;;;4.15;100.00
45357;BME280;31092;51.924;21.448;2023-04-02T09:31:34;99856.19;;;4.45;100.00
45357;BME280;31092;51.924;21.448;2023-04-02T09:34:31;99856.03;;;4.46;100.00
45357;BME280;31092;51.924;21.448;2023-04-02T09:37:19;99760.31;;;3.93;100.00
45357;BME280;31092;51.924;21.448;2023-04-02T09:39:49;99747.16;;;3.92;100.00
45357;BME280;31092;51.924;21.448;2023-04-02T09:42:33;99776.22;;;4.14;100.00
45357;BME280;31092;51.924;21.448;2023-04-02T09:45:23;99755.72;;;3.95;100.00
45357;BME280;31092;51.924;21.448;2023-04-02T09:47:50;99810.94;;;4.24;100.00
45357;BME280;31092;51.924;21.448;2023-04-02T09:50:32;99870.81;;;4.60;100.00
45357;BME280;31092;51.924;21.448;2023-04-02T09:53:23;99779.69;;;4.05;100.00
45357;BME280;31092;51.924;21.448;2023-04-02T09:56:13;99835.50;;;4.37;100.00
45357;BME280;31092;51.924;21.448;2023-04-02T09:58:40;99842.94;;;4.33;100.00
45357;BME280;31092;51.924;21.448;2023-04-02T10:01:29;99796.41;;;4.07;100.00
45357;BME280;31092;51.924;21.448;2023-04-02T10:03:55;99868.63;;;4.44;100.00
45357;BME280;31092;51.924;21.448;2023-04-02T10:06:21;99838.72;;;4.31;100.00
45357;BME280;31092;51.924;21.448;2023-04-02T10:08:46;99851.78;;;4.34;100.00
45357;BME280;31092;51.924;21.448;2023-04-02T10:11:28;99880.47;;;4.61;100.00
45357;BME280;31092;51.924;21.448;2023-04-02T10:14:00;99888.22;;;4.64;100.00
45357;BME280;31092;51.924;21.448;2023-04-02T10:19:13;99901.25;;;4.57;100.00
45357;BME280;31092;51.924;21.448;2023-04-02T10:21:43;99891.53;;;4.47;100.00
45357;BME280;31092;51.924;21.448;2023-04-02T10:24:11;99903.34;;;4.54;100.00
45357;BME280;31092;51.924;21.448;2023-04-02T10:32:22;99907.84;;;4.53;100.00
45357;BME280;31092;51.924;21.448;2023-04-02T10:40:28;99891.38;;;4.39;100.00
45357;BME280;31092;51.924;21.448;2023-04-02T10:43:38;99869.06;;;4.09;100.00
45357;BME280;31092;51.924;21.448;2023-04-02T10:51:40;99900.16;;;4.20;100.00
45357;BME280;31092;51.924;21.448;2023-04-02T10:57:03;99948.78;;;4.43;100.00
45357;BME280;31092;51.924;21.448;2023-04-02T10:59:34;99928.22;;;4.24;100.00
45357;BME280;31092;51.924;21.448;2023-04-02T11:02:22;99849.44;;;3.79;100.00
45357;BME280;31092;51.924;21.448;2023-04-02T11:04:51;99845.84;;;3.90;100.00
45357;BME280;31092;51.924;21.448;2023-04-02T11:07:20;99926.19;;;4.47;100.00
45357;BME280;31092;51.924;21.448;2023-04-02T11:09:51;99930.19;;;4.62;100.00
45357;BME280;31092;51.924;21.448;2023-04-02T11:12:40;99962.53;;;4.78;100.00
45357;BME280;31092;51.924;21.448;2023-04-02T11:15:17;99868.72;;;4.23;100.00
45357;BME280;31092;51.924;21.448;2023-04-02T11:17:44;99876.84;;;4.22;100.00
45357;BME280;31092;51.924;21.448;2023-04-02T11:20:41;99965.75;;;4.72;100.00
45357;BME280;31092;51.924;21.448;2023-04-02T11:23:12;99908.44;;;4.26;100.00
45357;BME280;31092;51.924;21.448;2023-04-02T11:25:40;99958.69;;;4.62;100.00
45357;BME280;31092;51.924;21.448;2023-04-02T11:28:40;99990.47;;;4.74;100.00
45357;BME280;31092;51.924;21.448;2023-04-02T11:31:06;99926.97;;;4.28;100.00
45357;BME280;31092;51.924;21.448;2023-04-02T11:35:59;99988.47;;;4.36;100.00
45357;BME280;31092;51.924;21.448;2023-04-02T11:40:53;100013.38;;;4.46;100.00
45357;BME280;31092;51.924;21.448;2023-04-02T11:46:29;99913.53;;;3.88;100.00
45357;BME280;31092;51.924;21.448;2023-04-02T11:48:50;99888.63;;;3.68;100.00
45357;BME280;31092;51.924;21.448;2023-04-02T11:53:51;99903.22;;;3.73;100.00
45357;BME280;31092;51.924;21.448;2023-04-02T11:56:39;100040.63;;;4.50;100.00
45357;BME280;31092;51.924;21.448;2023-04-02T11:59:16;100023.63;;;4.51;100.00
45357;BME280;31092;51.924;21.448;2023-04-02T12:10:23;100050.03;;;4.54;100.00
45357;BME280;31092;51.924;21.448;2023-04-02T12:13:17;100030.81;;;4.29;100.00
45357;BME280;31092;51.924;21.448;2023-04-02T12:15:45;100024.97;;;4.15;100.00
45357;BME280;31092;51.924;21.448;2023-04-02T12:18:21;100052.97;;;4.30;100.00
45357;BME280;31092;51.924;21.448;2023-04-02T12:20:52;100041.94;;;4.14;100.00
45357;BME280;31092;51.924;21.448;2023-04-02T12:23:32;99890.56;;;3.24;100.00
45357;BME280;31092;51.924;21.448;2023-04-02T12:26:04;99981.06;;;3.77;100.00
45357;BME280;31092;51.924;21.448;2023-04-02T12:28:31;99961.19;;;3.60;100.00
45357;BME280;31092;51.924;21.448;2023-04-02T12:33:40;100075.59;;;4.15;100.00
45357;BME280;31092;51.924;21.448;2023-04-02T12:36:27;100068.84;;;4.11;100.00
45357;BME280;31092;51.924;21.448;2023-04-02T12:38:55;99987.00;;;3.48;100.00
45357;BME280;31092;51.924;21.448;2023-04-02T12:41:29;99979.00;;;3.48;100.00
45357;BME280;31092;51.924;21.448;2023-04-02T12:43:59;99978.75;;;3.51;100.00
45357;BME280;31092;51.924;21.448;2023-04-02T12:46:26;99972.59;;;3.51;100.00
45357;BME280;31092;51.924;21.448;2023-04-02T12:48:54;100045.88;;;3.98;100.00
45357;BME280;31092;51.924;21.448;2023-04-02T12:51:22;99959.91;;;3.43;100.00
45357;BME280;31092;51.924;21.448;2023-04-02T12:53:50;100095.00;;;4.17;100.00
45357;BME280;31092;51.924;21.448;2023-04-02T12:56:21;100076.06;;;3.99;100.00
45357;BME280;31092;51.924;21.448;2023-04-02T12:58:57;100086.97;;;3.96;100.00
45357;BME280;31092;51.924;21.448;2023-04-02T13:01:28;100071.53;;;3.78;100.00
45357;BME280;31092;51.924;21.448;2023-04-02T13:06:28;100082.44;;;3.75;100.00
45357;BME280;31092;51.924;21.448;2023-04-02T13:08:55;100075.53;;;3.73;100.00
45357;BME280;31092;51.924;21.448;2023-04-02T13:11:21;100042.41;;;3.54;100.00
45357;BME280;31092;51.924;21.448;2023-04-02T13:13:48;100104.44;;;3.89;100.00
45357;BME280;31092;51.924;21.448;2023-04-02T13:18:41;100030.81;;;3.44;100.00
45357;BME280;31092;51.924;21.448;2023-04-02T13:23:38;99995.78;;;3.28;100.00
45357;BME280;31092;51.924;21.448;2023-04-02T13:28:32;100019.56;;;3.41;100.00
45357;BME280;31092;51.924;21.448;2023-04-02T13:30:58;100033.00;;;3.50;100.00
45357;BME280;31092;51.924;21.448;2023-04-02T13:33:23;100025.72;;;3.52;100.00
45357;BME280;31092;51.924;21.448;2023-04-02T13:35:49;100045.75;;;3.68;100.00
45357;BME280;31092;51.924;21.448;2023-04-02T13:38:14;100112.81;;;4.05;100.00
45357;BME280;31092;51.924;21.448;2023-04-02T13:40:40;100111.06;;;3.94;100.00
45357;BME280;31092;51.924;21.448;2023-04-02T13:43:07;100058.38;;;3.54;100.00
45357;BME280;31092;51.924;21.448;2023-04-02T13:45:40;100037.38;;;3.40;100.00
45357;BME280;31092;51.924;21.448;2023-04-02T13:48:11;100126.84;;;3.86;100.00
45357;BME280;31092;51.924;21.448;2023-04-02T13:50:38;100129.50;;;3.86;100.00
45357;BME280;31092;51.924;21.448;2023-04-02T13:53:05;100032.69;;;3.21;100.00
45357;BME280;31092;51.924;21.448;2023-04-02T13:55:34;100117.78;;;3.66;100.00
45357;BME280;31092;51.924;21.448;2023-04-02T13:58:01;100141.47;;;3.92;100.00
45357;BME280;31092;51.924;21.448;2023-04-02T14:00:27;100142.91;;;3.96;100.00
45357;BME280;31092;51.924;21.448;2023-04-02T14:02:58;100138.28;;;3.98;100.00
45357;BME280;31092;51.924;21.448;2023-04-02T14:11:01;100081.09;;;3.81;100.00
45357;BME280;31092;51.924;21.448;2023-04-02T14:27:40;100169.78;;;4.04;100.00
45357;BME280;31092;51.924;21.448;2023-04-02T14:33:12;100164.25;;;3.96;100.00
45357;BME280;31092;51.924;21.448;2023-04-02T14:35:44;100188.06;;;4.08;100.00
45357;BME280;31092;51.924;21.448;2023-04-02T14:38:43;100099.78;;;3.58;100.00
45357;BME280;31092;51.924;21.448;2023-04-02T14:41:18;100195.44;;;4.05;100.00
45357;BME280;31092;51.924;21.448;2023-04-02T14:43:58;100108.59;;;3.59;100.00
45357;BME280;31092;51.924;21.448;2023-04-02T14:46:25;100105.13;;;3.47;100.00
45357;BME280;31092;51.924;21.448;2023-04-02T14:48:57;100118.56;;;3.57;100.00
45357;BME280;31092;51.924;21.448;2023-04-02T14:51:33;100202.00;;;4.01;100.00
45357;BME280;31092;51.924;21.448;2023-04-02T14:56:37;100062.94;;;3.09;100.00
45357;BME280;31092;51.924;21.448;2023-04-02T15:02:00;100111.69;;;3.32;100.00
45357;BME280;31092;51.924;21.448;2023-04-02T15:04:58;100214.75;;;3.86;100.00
45357;BME280;31092;51.924;21.448;2023-04-02T15:07:32;100214.16;;;3.82;100.00
45357;BME280;31092;51.924;21.448;2023-04-02T15:10:37;100225.06;;;3.79;100.00
45357;BME280;31092;51.924;21.448;2023-04-02T15:13:07;100225.19;;;3.78;100.00
45357;BME280;31092;51.924;21.448;2023-04-02T15:15:45;100200.88;;;3.60;100.00
45357;BME280;31092;51.924;21.448;2023-04-02T15:18:16;100134.44;;;3.14;100.00
45357;BME280;31092;51.924;21.448;2023-04-02T15:26:35;100245.91;;;3.63;100.00
45357;BME280;31092;51.924;21.448;2023-04-02T15:29:20;100237.03;;;3.63;100.00
45357;BME280;31092;51.924;21.448;2023-04-02T15:31:50;100220.59;;;3.57;100.00
45357;BME280;31092;51.924;21.448;2023-04-02T15:34:40;100161.44;;;3.20;100.00
45357;BME280;31092;51.924;21.448;2023-04-02T15:37:19;100183.31;;;3.35;100.00
45357;BME280;31092;51.924;21.448;2023-04-02T15:43:10;100269.88;;;3.74;100.00
45357;BME280;31092;51.924;21.448;2023-04-02T15:45:50;100260.16;;;3.62;100.00
45357;BME280;31092;51.924;21.448;2023-04-02T15:48:24;100269.97;;;3.62;100.00
45357;BME280;31092;51.924;21.448;2023-04-02T15:51:08;100260.03;;;3.41;100.00
45357;BME280;31092;51.924;21.448;2023-04-02T15:56:33;100192.47;;;2.97;100.00